sensor_id;sensor_type;location;lat;lon;timestamp;temperature;humidity
11446;DHT22;5779;64.178;15.432;2022-12-18T00:00:40;-15.90;99.90
11446;DHT22;5779;64.178;15.432;2022-12-18T00:03:29;-16.20;99.90
11446;DHT22;5779;64.178;15.432;2022-12-18T00:06:16;-16.20;99.90
11446;DHT22;5779;64.178;15.432;2022-12-18T00:09:03;-16.60;99.90
11446;DHT22;5779;64.178;15.432;2022-12-18T00:11:50;-16.60;99.90
11446;DHT22;5779;64.178;15.432;2022-12-18T00:14:37;-16.90;99.90
11446;DHT22;5779;64.178;15.432;2022-12-18T00:17:24;-16.90;99.90
11446;DHT22;5779;64.178;15.432;2022-12-18T00:20:12;-16.90;99.90
11446;DHT22;5779;64.178;15.432;2022-12-18T00:22:59;-17.10;99.90
11446;DHT22;5779;64.178;15.432;2022-12-18T00:25:46;-17.10;99.90
11446;DHT22;5779;64.178;15.432;2022-12-18T00:28:33;-16.90;99.90
11446;DHT22;5779;64.178;15.432;2022-12-18T00:31:22;-16.70;99.90
11446;DHT22;5779;64.178;15.432;2022-12-18T00:34:11;-16.50;99.90
11446;DHT22;5779;64.178;15.432;2022-12-18T00:36:59;-16.20;99.90
11446;DHT22;5779;64.178;15.432;2022-12-18T00:39:48;-15.90;99.90
11446;DHT22;5779;64.178;15.432;2022-12-18T00:42:35;-15.70;99.90
11446;DHT22;5779;64.178;15.432;2022-12-18T00:45:39;-15.50;99.90
11446;DHT22;5779;64.178;15.432;2022-12-18T00:48:26;-15.20;99.90
11446;DHT22;5779;64.178;15.432;2022-12-18T00:51:13;-15.10;99.90
11446;DHT22;5779;64.178;15.432;2022-12-18T00:54:01;-15.00;99.90
11446;DHT22;5779;64.178;15.432;2022-12-18T00:56:48;-15.00;99.90
11446;DHT22;5779;64.178;15.432;2022-12-18T00:59:35;-15.00;99.90
11446;DHT22;5779;64.178;15.432;2022-12-18T01:02:22;-15.00;99.90
11446;DHT22;5779;64.178;15.432;2022-12-18T01:05:09;-15.00;99.90
11446;DHT22;5779;64.178;15.432;2022-12-18T01:07:56;-15.00;99.90
11446;DHT22;5779;64.178;15.432;2022-12-18T01:10:45;-14.90;99.90
11446;DHT22;5779;64.178;15.432;2022-12-18T01:13:31;-14.80;99.90
11446;DHT22;5779;64.178;15.432;2022-12-18T01:16:18;-14.70;99.90
11446;DHT22;5779;64.178;15.432;2022-12-18T01:19:05;-14.60;99.90
11446;DHT22;5779;64.178;15.432;2022-12-18T01:21:52;-14.60;99.90
11446;DHT22;5779;64.178;15.432;2022-12-18T01:24:39;-14.60;99.90
11446;DHT22;5779;64.178;15.432;2022-12-18T01:27:27;-14.50;99.90
11446;DHT22;5779;64.178;15.432;2022-12-18T01:30:14;-14.50;99.90
11446;DHT22;5779;64.178;15.432;2022-12-18T01:33:01;-14.40;99.90
11446;DHT22;5779;64.178;15.432;2022-12-18T01:35:48;-14.40;99.90
11446;DHT22;5779;64.178;15.432;2022-12-18T01:38:34;-14.70;99.90
11446;DHT22;5779;64.178;15.432;2022-12-18T01:41:23;-15.00;99.90
11446;DHT22;5779;64.178;15.432;2022-12-18T01:47:36;-14.50;99.90
11446;DHT22;5779;64.178;15.432;2022-12-18T01:50:28;-14.40;99.90
11446;DHT22;5779;64.178;15.432;2022-12-18T01:53:19;-14.30;99.90
11446;DHT22;5779;64.178;15.432;2022-12-18T01:56:07;-14.20;99.90
11446;DHT22;5779;64.178;15.432;2022-12-18T01:58:58;-14.10;99.90
11446;DHT22;5779;64.178;15.432;2022-12-18T02:01:46;-14.10;99.90
11446;DHT22;5779;64.178;15.432;2022-12-18T02:04:35;-14.00;99.90
11446;DHT22;5779;64.178;15.432;2022-12-18T02:07:28;-13.90;99.90
11446;DHT22;5779;64.178;15.432;2022-12-18T02:10:22;-14.00;99.90
11446;DHT22;5779;64.178;15.432;2022-12-18T02:13:14;-13.90;99.90
11446;DHT22;5779;64.178;15.432;2022-12-18T02:16:06;-14.20;99.90
11446;DHT22;5779;64.178;15.432;2022-12-18T02:18:57;-14.50;99.90
11446;DHT22;5779;64.178;15.432;2022-12-18T02:21:51;-14.80;99.90
11446;DHT22;5779;64.178;15.432;2022-12-18T02:24:45;-14.60;99.90
11446;DHT22;5779;64.178;15.432;2022-12-18T02:27:37;-14.50;99.90
11446;DHT22;5779;64.178;15.432;2022-12-18T02:30:26;-14.80;99.90
11446;DHT22;5779;64.178;15.432;2022-12-18T02:33:14;-15.10;99.90
11446;DHT22;5779;64.178;15.432;2022-12-18T02:36:02;-15.20;99.90
11446;DHT22;5779;64.178;15.432;2022-12-18T02:38:50;-15.10;99.90
11446;DHT22;5779;64.178;15.432;2022-12-18T02:41:38;-14.90;99.90
11446;DHT22;5779;64.178;15.432;2022-12-18T02:44:26;-14.70;99.90
11446;DHT22;5779;64.178;15.432;2022-12-18T02:47:15;-14.60;99.90
11446;DHT22;5779;64.178;15.432;2022-12-18T02:50:10;-14.50;99.90
11446;DHT22;5779;64.178;15.432;2022-12-18T02:53:08;-14.60;99.90
11446;DHT22;5779;64.178;15.432;2022-12-18T02:56:01;-14.60;99.90
11446;DHT22;5779;64.178;15.432;2022-12-18T02:58:58;-14.60;99.90
11446;DHT22;5779;64.178;15.432;2022-12-18T03:01:52;-14.70;99.90
11446;DHT22;5779;64.178;15.432;2022-12-18T03:04:43;-14.60;99.90
11446;DHT22;5779;64.178;15.432;2022-12-18T03:07:38;-14.60;99.90
11446;DHT22;5779;64.178;15.432;2022-12-18T03:10:28;-14.60;99.90
11446;DHT22;5779;64.178;15.432;2022-12-18T03:13:20;-14.60;99.90
11446;DHT22;5779;64.178;15.432;2022-12-18T03:16:11;-14.40;99.90
11446;DHT22;5779;64.178;15.432;2022-12-18T03:19:02;-14.30;99.90
11446;DHT22;5779;64.178;15.432;2022-12-18T03:21:53;-14.20;99.90
11446;DHT22;5779;64.178;15.432;2022-12-18T03:24:40;-14.00;99.90
11446;DHT22;5779;64.178;15.432;2022-12-18T03:27:29;-14.00;99.90
11446;DHT22;5779;64.178;15.432;2022-12-18T03:30:17;-14.00;99.90
11446;DHT22;5779;64.178;15.432;2022-12-18T03:33:08;-14.00;99.90
11446;DHT22;5779;64.178;15.432;2022-12-18T03:35:56;-13.80;99.90
11446;DHT22;5779;64.178;15.432;2022-12-18T03:38:43;-13.80;99.90
11446;DHT22;5779;64.178;15.432;2022-12-18T03:41:33;-13.70;99.90
11446;DHT22;5779;64.178;15.432;2022-12-18T03:44:27;-13.50;99.90
11446;DHT22;5779;64.178;15.432;2022-12-18T03:47:20;-13.20;99.90
11446;DHT22;5779;64.178;15.432;2022-12-18T03:50:14;-13.10;99.90
11446;DHT22;5779;64.178;15.432;2022-12-18T03:53:11;-13.00;99.90
11446;DHT22;5779;64.178;15.432;2022-12-18T03:56:00;-12.90;99.90
11446;DHT22;5779;64.178;15.432;2022-12-18T03:58:49;-13.00;99.90
11446;DHT22;5779;64.178;15.432;2022-12-18T04:01:39;-13.10;99.90
11446;DHT22;5779;64.178;15.432;2022-12-18T04:04:27;-13.20;99.90
11446;DHT22;5779;64.178;15.432;2022-12-18T04:07:15;-13.00;99.90
11446;DHT22;5779;64.178;15.432;2022-12-18T04:10:06;-12.80;99.90
11446;DHT22;5779;64.178;15.432;2022-12-18T04:12:56;-12.70;99.90
11446;DHT22;5779;64.178;15.432;2022-12-18T04:15:43;-12.60;99.90
11446;DHT22;5779;64.178;15.432;2022-12-18T04:18:30;-12.80;99.90
11446;DHT22;5779;64.178;15.432;2022-12-18T04:21:17;-13.10;99.90
11446;DHT22;5779;64.178;15.432;2022-12-18T04:24:04;-13.30;99.90
11446;DHT22;5779;64.178;15.432;2022-12-18T04:26:53;-13.40;99.90
11446;DHT22;5779;64.178;15.432;2022-12-18T04:29:40;-13.50;99.90
11446;DHT22;5779;64.178;15.432;2022-12-18T04:32:27;-13.60;99.90
11446;DHT22;5779;64.178;15.432;2022-12-18T04:35:14;-13.70;99.90
11446;DHT22;5779;64.178;15.432;2022-12-18T04:38:00;-13.70;99.90
11446;DHT22;5779;64.178;15.432;2022-12-18T04:40:47;-13.70;99.90
11446;DHT22;5779;64.178;15.432;2022-12-18T04:43:35;-13.60;99.90
11446;DHT22;5779;64.178;15.432;2022-12-18T04:46:22;-13.60;99.90
11446;DHT22;5779;64.178;15.432;2022-12-18T04:49:09;-13.70;99.90
11446;DHT22;5779;64.178;15.432;2022-12-18T04:51:56;-13.80;99.90
11446;DHT22;5779;64.178;15.432;2022-12-18T04:54:43;-13.70;99.90
11446;DHT22;5779;64.178;15.432;2022-12-18T04:57:30;-13.60;99.90
11446;DHT22;5779;64.178;15.432;2022-12-18T05:00:19;-13.60;99.90
11446;DHT22;5779;64.178;15.432;2022-12-18T05:03:05;-13.60;99.90
11446;DHT22;5779;64.178;15.432;2022-12-18T05:05:52;-13.50;99.90
11446;DHT22;5779;64.178;15.432;2022-12-18T05:08:39;-13.30;99.90
11446;DHT22;5779;64.178;15.432;2022-12-18T05:11:26;-13.40;99.90
11446;DHT22;5779;64.178;15.432;2022-12-18T05:14:13;-13.50;99.90
11446;DHT22;5779;64.178;15.432;2022-12-18T05:17:01;-13.50;99.90
11446;DHT22;5779;64.178;15.432;2022-12-18T05:19:47;-13.70;99.90
11446;DHT22;5779;64.178;15.432;2022-12-18T05:22:34;-13.60;99.90
11446;DHT22;5779;64.178;15.432;2022-12-18T05:25:22;-13.70;99.90
11446;DHT22;5779;64.178;15.432;2022-12-18T05:28:09;-13.60;99.90
11446;DHT22;5779;64.178;15.432;2022-12-18T05:30:58;-13.60;99.90
11446;DHT22;5779;64.178;15.432;2022-12-18T05:33:46;-13.50;99.90
11446;DHT22;5779;64.178;15.432;2022-12-18T05:36:33;-13.30;99.90
11446;DHT22;5779;64.178;15.432;2022-12-18T05:39:20;-13.00;99.90
11446;DHT22;5779;64.178;15.432;2022-12-18T05:42:07;-13.10;99.90
11446;DHT22;5779;64.178;15.432;2022-12-18T05:44:54;-13.00;99.90
11446;DHT22;5779;64.178;15.432;2022-12-18T05:47:40;-13.10;99.90
11446;DHT22;5779;64.178;15.432;2022-12-18T05:50:29;-13.00;99.90
11446;DHT22;5779;64.178;15.432;2022-12-18T05:53:17;-13.20;99.90
11446;DHT22;5779;64.178;15.432;2022-12-18T05:56:07;-13.20;99.90
11446;DHT22;5779;64.178;15.432;2022-12-18T05:58:54;-13.20;99.90
11446;DHT22;5779;64.178;15.432;2022-12-18T06:01:41;-13.10;99.90
11446;DHT22;5779;64.178;15.432;2022-12-18T06:04:28;-13.20;99.90
11446;DHT22;5779;64.178;15.432;2022-12-18T06:07:16;-13.10;99.90
11446;DHT22;5779;64.178;15.432;2022-12-18T06:10:03;-12.90;99.90
11446;DHT22;5779;64.178;15.432;2022-12-18T06:12:50;-12.90;99.90
11446;DHT22;5779;64.178;15.432;2022-12-18T06:15:37;-13.00;99.90
11446;DHT22;5779;64.178;15.432;2022-12-18T06:18:24;-13.00;99.90
11446;DHT22;5779;64.178;15.432;2022-12-18T06:21:12;-13.00;99.90
11446;DHT22;5779;64.178;15.432;2022-12-18T06:24:00;-13.00;99.90
11446;DHT22;5779;64.178;15.432;2022-12-18T06:26:47;-13.00;99.90
11446;DHT22;5779;64.178;15.432;2022-12-18T06:29:34;-13.00;99.90
11446;DHT22;5779;64.178;15.432;2022-12-18T06:32:21;-13.10;99.90
11446;DHT22;5779;64.178;15.432;2022-12-18T06:35:08;-13.10;99.90
11446;DHT22;5779;64.178;15.432;2022-12-18T06:37:55;-13.20;99.90
11446;DHT22;5779;64.178;15.432;2022-12-18T06:40:43;-13.10;99.90
11446;DHT22;5779;64.178;15.432;2022-12-18T06:43:30;-13.10;99.90
11446;DHT22;5779;64.178;15.432;2022-12-18T06:46:17;-13.00;99.90
11446;DHT22;5779;64.178;15.432;2022-12-18T06:49:04;-13.10;99.90
11446;DHT22;5779;64.178;15.432;2022-12-18T06:51:50;-13.20;99.90
11446;DHT22;5779;64.178;15.432;2022-12-18T06:54:37;-13.20;99.90
11446;DHT22;5779;64.178;15.432;2022-12-18T06:57:26;-13.20;99.90
11446;DHT22;5779;64.178;15.432;2022-12-18T07:00:13;-13.20;99.90
11446;DHT22;5779;64.178;15.432;2022-12-18T07:03:00;-13.10;99.90
11446;DHT22;5779;64.178;15.432;2022-12-18T07:05:47;-13.10;99.90
11446;DHT22;5779;64.178;15.432;2022-12-18T07:08:34;-13.10;99.90
11446;DHT22;5779;64.178;15.432;2022-12-18T07:11:21;-12.90;99.90
11446;DHT22;5779;64.178;15.432;2022-12-18T07:14:09;-12.90;99.90
11446;DHT22;5779;64.178;15.432;2022-12-18T07:16:56;-12.90;99.90
11446;DHT22;5779;64.178;15.432;2022-12-18T07:19:42;-12.80;99.90
11446;DHT22;5779;64.178;15.432;2022-12-18T07:22:29;-12.90;99.90
11446;DHT22;5779;64.178;15.432;2022-12-18T07:25:16;-12.90;99.90
11446;DHT22;5779;64.178;15.432;2022-12-18T07:28:04;-12.90;99.90
11446;DHT22;5779;64.178;15.432;2022-12-18T07:30:52;-13.00;99.90
11446;DHT22;5779;64.178;15.432;2022-12-18T07:33:39;-12.90;99.90
11446;DHT22;5779;64.178;15.432;2022-12-18T07:36:26;-12.80;99.90
11446;DHT22;5779;64.178;15.432;2022-12-18T07:39:13;-12.80;99.90
11446;DHT22;5779;64.178;15.432;2022-12-18T07:42:00;-12.70;99.90
11446;DHT22;5779;64.178;15.432;2022-12-18T07:45:05;-12.60;99.90
11446;DHT22;5779;64.178;15.432;2022-12-18T07:47:53;-12.70;99.90
11446;DHT22;5779;64.178;15.432;2022-12-18T07:50:40;-12.60;99.90
11446;DHT22;5779;64.178;15.432;2022-12-18T07:53:26;-12.60;99.90
11446;DHT22;5779;64.178;15.432;2022-12-18T07:56:13;-12.60;99.90
11446;DHT22;5779;64.178;15.432;2022-12-18T07:59:03;-12.70;99.90
11446;DHT22;5779;64.178;15.432;2022-12-18T08:01:50;-12.70;99.90
11446;DHT22;5779;64.178;15.432;2022-12-18T08:04:38;-12.70;99.90
11446;DHT22;5779;64.178;15.432;2022-12-18T08:07:25;-12.60;99.90
11446;DHT22;5779;64.178;15.432;2022-12-18T08:10:12;-12.50;99.90
11446;DHT22;5779;64.178;15.432;2022-12-18T08:12:59;-12.40;99.90
11446;DHT22;5779;64.178;15.432;2022-12-18T08:15:54;-12.40;99.90
11446;DHT22;5779;64.178;15.432;2022-12-18T08:18:41;-12.50;99.90
11446;DHT22;5779;64.178;15.432;2022-12-18T08:21:30;-12.50;99.90
11446;DHT22;5779;64.178;15.432;2022-12-18T08:24:17;-12.30;99.90
11446;DHT22;5779;64.178;15.432;2022-12-18T08:27:04;-12.30;99.90
11446;DHT22;5779;64.178;15.432;2022-12-18T08:29:51;-12.30;99.90
11446;DHT22;5779;64.178;15.432;2022-12-18T08:32:38;-12.30;99.90
11446;DHT22;5779;64.178;15.432;2022-12-18T08:35:25;-12.20;99.90
11446;DHT22;5779;64.178;15.432;2022-12-18T08:38:13;-12.10;99.90
11446;DHT22;5779;64.178;15.432;2022-12-18T08:41:01;-11.90;99.90
11446;DHT22;5779;64.178;15.432;2022-12-18T08:43:48;-11.90;99.90
11446;DHT22;5779;64.178;15.432;2022-12-18T08:46:53;-11.80;99.90
11446;DHT22;5779;64.178;15.432;2022-12-18T08:49:39;-11.70;99.90
11446;DHT22;5779;64.178;15.432;2022-12-18T08:52:26;-11.60;99.90
11446;DHT22;5779;64.178;15.432;2022-12-18T08:55:15;-11.70;99.90
11446;DHT22;5779;64.178;15.432;2022-12-18T08:58:01;-11.60;99.90
11446;DHT22;5779;64.178;15.432;2022-12-18T09:00:48;-11.40;99.90
11446;DHT22;5779;64.178;15.432;2022-12-18T09:03:35;-11.30;99.90
11446;DHT22;5779;64.178;15.432;2022-12-18T09:06:22;-11.00;99.90
11446;DHT22;5779;64.178;15.432;2022-12-18T09:09:10;-11.10;99.90
11446;DHT22;5779;64.178;15.432;2022-12-18T09:11:58;-11.30;99.90
11446;DHT22;5779;64.178;15.432;2022-12-18T09:14:46;-11.30;99.90
11446;DHT22;5779;64.178;15.432;2022-12-18T09:17:33;-11.20;99.90
11446;DHT22;5779;64.178;15.432;2022-12-18T09:20:20;-11.40;99.90
11446;DHT22;5779;64.178;15.432;2022-12-18T09:23:07;-11.60;99.90
11446;DHT22;5779;64.178;15.432;2022-12-18T09:25:58;-11.60;99.90
11446;DHT22;5779;64.178;15.432;2022-12-18T09:28:47;-11.60;99.90
11446;DHT22;5779;64.178;15.432;2022-12-18T09:31:34;-11.40;99.90
11446;DHT22;5779;64.178;15.432;2022-12-18T09:34:21;-11.40;99.90
11446;DHT22;5779;64.178;15.432;2022-12-18T09:37:08;-11.50;99.90
11446;DHT22;5779;64.178;15.432;2022-12-18T09:39:55;-11.50;99.90
11446;DHT22;5779;64.178;15.432;2022-12-18T09:42:47;-11.50;99.90
11446;DHT22;5779;64.178;15.432;2022-12-18T09:45:40;-11.30;99.90
11446;DHT22;5779;64.178;15.432;2022-12-18T09:48:31;-11.10;99.90
11446;DHT22;5779;64.178;15.432;2022-12-18T09:51:23;-11.00;99.90
11446;DHT22;5779;64.178;15.432;2022-12-18T09:54:15;-11.00;99.90
11446;DHT22;5779;64.178;15.432;2022-12-18T09:57:02;-10.80;99.90
11446;DHT22;5779;64.178;15.432;2022-12-18T09:59:53;-10.80;99.90
11446;DHT22;5779;64.178;15.432;2022-12-18T10:02:43;-10.60;99.90
11446;DHT22;5779;64.178;15.432;2022-12-18T10:05:35;-10.30;99.90
11446;DHT22;5779;64.178;15.432;2022-12-18T10:08:32;-10.10;99.90
11446;DHT22;5779;64.178;15.432;2022-12-18T10:11:36;-10.40;99.90
11446;DHT22;5779;64.178;15.432;2022-12-18T10:14:31;-10.30;99.90
11446;DHT22;5779;64.178;15.432;2022-12-18T10:17:28;-10.20;99.90
11446;DHT22;5779;64.178;15.432;2022-12-18T10:20:24;-10.10;99.90
11446;DHT22;5779;64.178;15.432;2022-12-18T10:23:19;-9.90;99.90
11446;DHT22;5779;64.178;15.432;2022-12-18T10:26:09;-9.80;99.90
11446;DHT22;5779;64.178;15.432;2022-12-18T10:28:57;-9.90;99.90
11446;DHT22;5779;64.178;15.432;2022-12-18T10:31:45;-9.80;99.90
11446;DHT22;5779;64.178;15.432;2022-12-18T10:34:32;-9.70;99.90
11446;DHT22;5779;64.178;15.432;2022-12-18T10:37:22;-9.80;99.90
11446;DHT22;5779;64.178;15.432;2022-12-18T10:40:12;-9.60;99.90
11446;DHT22;5779;64.178;15.432;2022-12-18T10:43:12;-9.50;99.90
11446;DHT22;5779;64.178;15.432;2022-12-18T10:46:12;-9.30;99.90
11446;DHT22;5779;64.178;15.432;2022-12-18T10:49:01;-9.20;99.90
11446;DHT22;5779;64.178;15.432;2022-12-18T10:51:48;-9.10;99.90
11446;DHT22;5779;64.178;15.432;2022-12-18T10:54:36;-9.00;99.90
11446;DHT22;5779;64.178;15.432;2022-12-18T10:57:33;-9.00;99.90
11446;DHT22;5779;64.178;15.432;2022-12-18T11:00:25;-8.80;99.90
11446;DHT22;5779;64.178;15.432;2022-12-18T11:03:29;-8.80;99.90
11446;DHT22;5779;64.178;15.432;2022-12-18T11:06:17;-8.80;99.90
11446;DHT22;5779;64.178;15.432;2022-12-18T11:09:18;-8.70;99.90
11446;DHT22;5779;64.178;15.432;2022-12-18T11:12:17;-8.70;99.90
11446;DHT22;5779;64.178;15.432;2022-12-18T11:15:05;-8.70;99.90
11446;DHT22;5779;64.178;15.432;2022-12-18T11:17:53;-8.60;99.90
11446;DHT22;5779;64.178;15.432;2022-12-18T11:20:39;-8.60;99.90
11446;DHT22;5779;64.178;15.432;2022-12-18T11:23:27;-8.60;99.90
11446;DHT22;5779;64.178;15.432;2022-12-18T11:26:13;-8.60;99.90
11446;DHT22;5779;64.178;15.432;2022-12-18T11:29:10;-8.40;99.90
11446;DHT22;5779;64.178;15.432;2022-12-18T11:32:35;-8.40;99.90
11446;DHT22;5779;64.178;15.432;2022-12-18T11:35:36;-8.50;99.90
11446;DHT22;5779;64.178;15.432;2022-12-18T11:38:26;-8.50;99.90
11446;DHT22;5779;64.178;15.432;2022-12-18T11:41:19;-8.70;99.90
11446;DHT22;5779;64.178;15.432;2022-12-18T11:44:11;-8.70;99.90
11446;DHT22;5779;64.178;15.432;2022-12-18T11:47:03;-8.90;99.90
11446;DHT22;5779;64.178;15.432;2022-12-18T11:49:50;-8.90;99.90
11446;DHT22;5779;64.178;15.432;2022-12-18T11:52:39;-9.00;99.90
11446;DHT22;5779;64.178;15.432;2022-12-18T11:55:39;-8.90;99.90
11446;DHT22;5779;64.178;15.432;2022-12-18T11:58:45;-8.80;99.90
11446;DHT22;5779;64.178;15.432;2022-12-18T12:01:44;-8.80;99.90
11446;DHT22;5779;64.178;15.432;2022-12-18T12:05:01;-8.60;99.90
11446;DHT22;5779;64.178;15.432;2022-12-18T12:07:57;-8.50;99.90
11446;DHT22;5779;64.178;15.432;2022-12-18T12:10:53;-8.40;99.90
11446;DHT22;5779;64.178;15.432;2022-12-18T12:13:51;-8.40;99.90
11446;DHT22;5779;64.178;15.432;2022-12-18T12:16:46;-8.40;99.90
11446;DHT22;5779;64.178;15.432;2022-12-18T12:19:45;-8.40;99.90
11446;DHT22;5779;64.178;15.432;2022-12-18T12:22:40;-8.40;99.90
11446;DHT22;5779;64.178;15.432;2022-12-18T12:25:35;-8.70;99.90
11446;DHT22;5779;64.178;15.432;2022-12-18T12:28:36;-9.00;99.90
11446;DHT22;5779;64.178;15.432;2022-12-18T12:31:39;-9.00;99.90
11446;DHT22;5779;64.178;15.432;2022-12-18T12:34:34;-9.20;99.90
11446;DHT22;5779;64.178;15.432;2022-12-18T12:37:33;-9.40;99.90
11446;DHT22;5779;64.178;15.432;2022-12-18T12:40:28;-9.80;99.90
11446;DHT22;5779;64.178;15.432;2022-12-18T12:43:34;-10.00;99.90
11446;DHT22;5779;64.178;15.432;2022-12-18T12:46:23;-10.10;99.90
11446;DHT22;5779;64.178;15.432;2022-12-18T12:49:13;-10.00;99.90
11446;DHT22;5779;64.178;15.432;2022-12-18T12:52:06;-9.90;99.90
11446;DHT22;5779;64.178;15.432;2022-12-18T12:54:54;-10.20;99.90
11446;DHT22;5779;64.178;15.432;2022-12-18T12:57:45;-10.30;99.90
11446;DHT22;5779;64.178;15.432;2022-12-18T13:00:37;-10.40;99.90
11446;DHT22;5779;64.178;15.432;2022-12-18T13:03:36;-10.30;99.90
11446;DHT22;5779;64.178;15.432;2022-12-18T13:06:36;-10.30;99.90
11446;DHT22;5779;64.178;15.432;2022-12-18T13:09:30;-10.00;99.90
11446;DHT22;5779;64.178;15.432;2022-12-18T13:12:17;-9.70;99.90
11446;DHT22;5779;64.178;15.432;2022-12-18T13:15:34;-9.60;99.90
11446;DHT22;5779;64.178;15.432;2022-12-18T13:18:24;-9.60;99.90
11446;DHT22;5779;64.178;15.432;2022-12-18T13:21:21;-9.80;99.90
11446;DHT22;5779;64.178;15.432;2022-12-18T13:24:20;-9.80;99.90
11446;DHT22;5779;64.178;15.432;2022-12-18T13:30:57;-10.00;99.90
11446;DHT22;5779;64.178;15.432;2022-12-18T13:33:45;-9.80;99.90
11446;DHT22;5779;64.178;15.432;2022-12-18T13:36:33;-10.00;99.90
11446;DHT22;5779;64.178;15.432;2022-12-18T13:39:31;-10.30;99.90
11446;DHT22;5779;64.178;15.432;2022-12-18T13:42:37;-10.40;99.90
11446;DHT22;5779;64.178;15.432;2022-12-18T13:45:46;-10.40;99.90
11446;DHT22;5779;64.178;15.432;2022-12-18T13:48:37;-10.00;99.90
11446;DHT22;5779;64.178;15.432;2022-12-18T13:51:26;-9.80;99.90
11446;DHT22;5779;64.178;15.432;2022-12-18T13:54:20;-9.50;99.90
11446;DHT22;5779;64.178;15.432;2022-12-18T13:57:27;-9.40;99.90
11446;DHT22;5779;64.178;15.432;2022-12-18T14:00:24;-9.30;99.90
11446;DHT22;5779;64.178;15.432;2022-12-18T14:03:20;-9.30;99.90
11446;DHT22;5779;64.178;15.432;2022-12-18T14:06:08;-9.30;99.90
11446;DHT22;5779;64.178;15.432;2022-12-18T14:08:58;-9.30;99.90
11446;DHT22;5779;64.178;15.432;2022-12-18T14:11:49;-9.20;99.90
11446;DHT22;5779;64.178;15.432;2022-12-18T14:14:36;-9.20;99.90
11446;DHT22;5779;64.178;15.432;2022-12-18T14:17:23;-9.20;99.90
11446;DHT22;5779;64.178;15.432;2022-12-18T14:20:13;-9.20;99.90
11446;DHT22;5779;64.178;15.432;2022-12-18T14:23:02;-9.20;99.90
11446;DHT22;5779;64.178;15.432;2022-12-18T14:25:49;-9.20;99.90
11446;DHT22;5779;64.178;15.432;2022-12-18T14:28:43;-9.20;99.90
11446;DHT22;5779;64.178;15.432;2022-12-18T14:31:30;-9.20;99.90
11446;DHT22;5779;64.178;15.432;2022-12-18T14:34:17;-9.20;99.90
11446;DHT22;5779;64.178;15.432;2022-12-18T14:37:04;-9.20;99.90
11446;DHT22;5779;64.178;15.432;2022-12-18T14:39:58;-9.40;99.90
11446;DHT22;5779;64.178;15.432;2022-12-18T14:42:45;-9.70;99.90
11446;DHT22;5779;64.178;15.432;2022-12-18T14:45:39;-9.70;99.90
11446;DHT22;5779;64.178;15.432;2022-12-18T14:48:36;-9.70;99.90
11446;DHT22;5779;64.178;15.432;2022-12-18T14:51:26;-9.70;99.90
11446;DHT22;5779;64.178;15.432;2022-12-18T14:54:16;-10.00;99.90
11446;DHT22;5779;64.178;15.432;2022-12-18T14:57:14;-10.00;99.90
11446;DHT22;5779;64.178;15.432;2022-12-18T15:00:06;-10.00;99.90
11446;DHT22;5779;64.178;15.432;2022-12-18T15:02:54;-10.30;99.90
11446;DHT22;5779;64.178;15.432;2022-12-18T15:05:42;-10.20;99.90
11446;DHT22;5779;64.178;15.432;2022-12-18T15:08:34;-10.00;99.90
11446;DHT22;5779;64.178;15.432;2022-12-18T15:11:43;-9.90;99.90
11446;DHT22;5779;64.178;15.432;2022-12-18T15:14:35;-9.80;99.90
11446;DHT22;5779;64.178;15.432;2022-12-18T15:17:24;-9.90;99.90
11446;DHT22;5779;64.178;15.432;2022-12-18T15:20:13;-9.60;99.90
11446;DHT22;5779;64.178;15.432;2022-12-18T15:23:05;-9.60;99.90
11446;DHT22;5779;64.178;15.432;2022-12-18T15:25:55;-9.40;99.90
11446;DHT22;5779;64.178;15.432;2022-12-18T15:28:45;-9.30;99.90
11446;DHT22;5779;64.178;15.432;2022-12-18T15:31:34;-9.40;99.90
11446;DHT22;5779;64.178;15.432;2022-12-18T15:34:22;-9.30;99.90
11446;DHT22;5779;64.178;15.432;2022-12-18T15:37:10;-9.10;99.90
11446;DHT22;5779;64.178;15.432;2022-12-18T15:39:57;-9.10;99.90
11446;DHT22;5779;64.178;15.432;2022-12-18T15:42:44;-8.80;99.90
11446;DHT22;5779;64.178;15.432;2022-12-18T15:45:49;-8.60;99.90
11446;DHT22;5779;64.178;15.432;2022-12-18T15:48:40;-8.20;99.90
11446;DHT22;5779;64.178;15.432;2022-12-18T15:51:29;-8.20;99.90
11446;DHT22;5779;64.178;15.432;2022-12-18T15:54:18;-8.70;99.90
11446;DHT22;5779;64.178;15.432;2022-12-18T15:57:25;-8.40;99.90
11446;DHT22;5779;64.178;15.432;2022-12-18T16:00:12;-8.40;99.90
11446;DHT22;5779;64.178;15.432;2022-12-18T16:02:59;-8.20;99.90
11446;DHT22;5779;64.178;15.432;2022-12-18T16:05:47;-8.10;99.90
11446;DHT22;5779;64.178;15.432;2022-12-18T16:08:34;-7.80;99.90
11446;DHT22;5779;64.178;15.432;2022-12-18T16:11:23;-6.90;99.90
11446;DHT22;5779;64.178;15.432;2022-12-18T16:14:24;-5.20;99.90
11446;DHT22;5779;64.178;15.432;2022-12-18T16:17:12;-4.80;99.90
11446;DHT22;5779;64.178;15.432;2022-12-18T16:19:59;-4.50;99.90
11446;DHT22;5779;64.178;15.432;2022-12-18T16:22:48;-4.60;99.90
11446;DHT22;5779;64.178;15.432;2022-12-18T16:25:35;-5.40;99.90
11446;DHT22;5779;64.178;15.432;2022-12-18T16:28:22;-6.00;99.90
11446;DHT22;5779;64.178;15.432;2022-12-18T16:31:09;-6.00;99.90
11446;DHT22;5779;64.178;15.432;2022-12-18T16:34:11;-5.90;99.90
11446;DHT22;5779;64.178;15.432;2022-12-18T16:37:00;-6.40;99.90
11446;DHT22;5779;64.178;15.432;2022-12-18T16:39:49;-6.20;99.90
11446;DHT22;5779;64.178;15.432;2022-12-18T16:42:37;-5.80;99.90
11446;DHT22;5779;64.178;15.432;2022-12-18T16:45:24;-5.50;99.90
11446;DHT22;5779;64.178;15.432;2022-12-18T16:48:11;-5.20;99.90
11446;DHT22;5779;64.178;15.432;2022-12-18T16:51:00;-5.30;99.90
11446;DHT22;5779;64.178;15.432;2022-12-18T16:53:48;-5.40;99.90
11446;DHT22;5779;64.178;15.432;2022-12-18T16:56:36;-5.50;99.90
11446;DHT22;5779;64.178;15.432;2022-12-18T16:59:22;-5.30;99.90
11446;DHT22;5779;64.178;15.432;2022-12-18T17:02:12;-5.00;99.90
11446;DHT22;5779;64.178;15.432;2022-12-18T17:05:00;-4.50;99.90
11446;DHT22;5779;64.178;15.432;2022-12-18T17:07:47;-4.40;99.90
11446;DHT22;5779;64.178;15.432;2022-12-18T17:10:34;-4.10;99.90
11446;DHT22;5779;64.178;15.432;2022-12-18T17:13:25;-3.80;99.90
11446;DHT22;5779;64.178;15.432;2022-12-18T17:16:12;-3.40;99.90
11446;DHT22;5779;64.178;15.432;2022-12-18T17:18:59;-3.10;99.90
11446;DHT22;5779;64.178;15.432;2022-12-18T17:21:48;-3.10;99.90
11446;DHT22;5779;64.178;15.432;2022-12-18T17:24:35;-2.90;99.90
11446;DHT22;5779;64.178;15.432;2022-12-18T17:27:22;-2.70;99.90
11446;DHT22;5779;64.178;15.432;2022-12-18T17:30:12;-2.70;99.90
11446;DHT22;5779;64.178;15.432;2022-12-18T17:32:59;-2.70;99.90
11446;DHT22;5779;64.178;15.432;2022-12-18T17:35:45;-2.60;99.90
11446;DHT22;5779;64.178;15.432;2022-12-18T17:38:32;-2.50;99.90
11446;DHT22;5779;64.178;15.432;2022-12-18T17:41:19;-2.50;99.90
11446;DHT22;5779;64.178;15.432;2022-12-18T17:44:07;-2.50;99.90
11446;DHT22;5779;64.178;15.432;2022-12-18T17:46:56;-2.50;99.90
11446;DHT22;5779;64.178;15.432;2022-12-18T17:49:43;-2.50;99.90
11446;DHT22;5779;64.178;15.432;2022-12-18T17:52:29;-2.40;99.90